アルハンゲリスク の空港の天気 - METARとTAF

Arhangel'Sk ( ULAA / ARH ) - ロシア アルハンゲリスク
飛行場実況気象(Metar)
観測時間04/21 03:00 MSK (04/21 00:00 UTC)
風向・風速東 3m/s
視程10km以上
天気現象
全天の4割程度の雲 雲底高度 1010m
気温-6℃
湿度86%
気圧1008hPa
METARULAA 210000Z 10003MPS 9999 SCT033 M06/M08 Q1008 R08/CLRD70 NOSIG RMK QFE755/1007
過去の天気等 Google飛行場航空写真 Wunderground天気予報

過去48時間のMETAR

飛行場予報(TAF)
発表時間: 4/21 01:58 MSK (4/20 22:58 UTC)
予報対象時間: 21日3時 MSK ~ 22日3時 MSK
風向・風速東南東 3m/s
視程6,000m
全天の8割程度の雲 雲底高度 370m
21日3時 MSK ~ 21日9時 MSK に一時的に
風向・風速南東 3m/s 瞬間風速 9m/s
視程2,100m
天気現象弱い雪 もや
全天の8割程度の雲 雲底高度 340m
21日9時 MSK ~ 21日18時 MSK に一時的に
風向・風速南東 5m/s 瞬間風速 11m/s
視程3,100m
天気現象弱い雪 もや
全天の8割程度の雲 雲底高度 340m
TAF ULAA 202258Z 2100/2124 11003MPS 6000 BKN012
TEMPO 2100/2106 13003G09MPS 2100 -SN BR BKN011
TEMPO 2106/2115 13005G11MPS 3100 -SN BR BKN011